Latest Coastal Weather Observations for Neptune Island

IDT60701

Issued at 7:32 pm EST Monday 29 May 2017 (issued every 10 minutes, with the page automatically refreshed every 10 minutes)

About coastal observations | Map of coastal stations | Coastal observations for TAS | Marine services | Other Formats
Station Details ID: 018115 Name: NEPTUNE ISLAND Lat: -35.34 Lon: 136.12 Height: 32.0 m
Data from the previous 72 hours. | See also: Recent months at Neptune Island
Date/Time
EST
Temp
°C
Wind Pressure Rain since
9am
mm
Weather Cloud Vis
km
Sea
Height
m
Swell
Dir  Spd
kts
Gust
kts
hPa Trend Height
m
Period
s
Dir
29/07:30pm 13.8 WSW 25 30 1021.7 - 3.8 - - - - - - -
29/07:00pm 15.3 W 21 26 1021.2 - 0.0 - - - - - - -
29/06:30pm 15.8 W 24 29 1020.8 - 0.0 - - - - - - -
29/06:00pm 16.0 W 21 25 1020.6 - 0.0 - - - - - - -
29/05:30pm 15.8 W 21 24 1020.4 - 0.0 - - - - - - -
29/05:00pm 16.1 W 19 24 1020.2 - 0.0 - - - - - - -
29/04:30pm 15.8 W 16 21 1020.3 - 0.0 - - - - - - -
29/04:00pm 16.0 W 16 19 1020.2 - 0.0 - - - - - - -
29/03:30pm 16.1 W 18 22 1020.1 - 0.0 - - - - - - -
29/03:00pm 15.9 W 17 20 1020.1 - 0.0 - - - - - - -
29/02:30pm 16.0 W 17 20 1020.1 - 0.0 - - - - - - -
29/02:00pm 16.3 W 14 16 1020.1 - 0.0 - - - - - - -
29/01:30pm 15.6 WSW 17 20 1020.3 - 0.0 - - - - - - -
29/01:00pm 15.4 WSW 17 19 1020.5 - 0.0 - - - - - - -
29/12:30pm 15.8 W 14 17 1020.8 - 0.0 - - - - - - -
29/12:00pm 15.9 WSW 15 18 1021.2 - 0.0 - - - - - - -
29/11:30am 15.4 W 14 16 1021.4 - 0.0 - - - - - - -
29/11:00am 15.3 WSW 15 17 1021.3 - 0.0 - - - - - - -
29/10:30am 14.7 WSW 14 17 1021.1 - 0.0 - - - - - - -
29/10:00am 14.2 WSW 12 18 1021.1 - 0.0 - - - - - - -
29/09:30am 13.7 WSW 11 14 1021.0 - 0.8 - - - - - - -
29/09:00am 13.9 WSW 12 14 1020.8 - 0.8 - - - - - - -
29/08:30am 13.6 WSW 17 20 1020.5 - 0.8 - - - - - - -
29/08:00am 13.7 WSW 12 14 1020.2 - 0.8 - - - - - - -
29/07:30am 13.8 WSW 12 15 1020.1 - 0.8 - - - - - - -
29/07:00am 13.4 WSW 12 14 1019.9 - 0.8 - - - - - - -
29/06:30am 13.4 WSW 11 13 1019.7 - 0.6 Recent precip. - - - - - -
29/06:00am 13.5 WSW 12 14 1019.5 - 0.4 - - - - - - -
29/05:30am 14.1 W 11 14 1019.3 - 0.4 - - - - - - -
29/05:00am 14.0 W 11 13 1019.4 - 0.4 - - - - - - -
29/04:30am 13.9 W 11 14 1019.5 - 0.4 - - - - - - -
29/04:00am 13.9 WSW 13 15 1019.4 - 0.4 - - - - - - -
29/03:30am 13.8 WSW 13 15 1019.6 - 0.4 - - - - - - -
29/03:00am 13.7 SW 13 16 1019.6 - 0.4 - - - - - - -
29/02:30am 13.7 W 14 16 1019.5 - 0.4 - - - - - - -
29/02:00am 14.0 WSW 13 16 1019.4 - 0.4 - - - - - - -
29/01:30am 13.8 WSW 14 17 1019.3 - 0.4 - - - - - - -
29/01:00am 13.3 SW 11 13 1019.5 - 0.2 - - - - - - -
29/12:30am 14.1 W 17 23 1019.6 - 0.0 - - - - - - -
29/12:00am 14.0 W 11 15 1019.7 - 0.0 - - - - - - -
 
Date/Time
EST
Temp
°C
Wind Pressure Rain since
9am
mm
Weather Cloud Vis
km
Sea
Height
m
Swell
Dir  Spd
kts
Gust
kts
hPa Trend Height
m
Period
s
Dir
28/11:30pm 13.8 W 15 20 1019.6 - 0.0 - - - - - - -
28/11:00pm 14.1 WSW 16 23 1019.7 - 0.0 - - - - - - -
28/10:30pm 13.9 WSW 18 21 1019.9 - 0.0 - - - - - - -
28/10:00pm 13.8 WSW 14 18 1019.8 - 0.0 - - - - - - -
28/09:30pm 13.6 SW 15 22 1019.5 - 0.0 - - - - - - -
28/09:00pm 13.7 WSW 15 17 1019.6 - 0.0 - - - - - - -
28/08:36pm 14.1 WSW 18 28 1019.2 - 0.0 - - - - - - -
28/08:30pm 14.0 WSW 17 20 1019.3 - 0.0 - - - - - - -
28/08:00pm 14.1 WSW 19 23 1018.9 - 0.0 - - - - - - -
28/07:30pm 14.2 SW 19 22 1018.6 - 0.0 - - - - - - -
28/07:00pm 13.9 SW 20 23 1018.3 - 0.0 - - - - - - -
28/06:30pm 13.9 SW 21 25 1018.0 - 0.0 - - - - - - -
28/06:00pm 13.8 SW 21 25 1017.7 - 0.0 - - - - - - -
28/05:30pm 14.2 SW 21 26 1017.5 - 0.0 - - - - - - -
28/05:00pm 14.1 SW 22 26 1017.1 - 0.0 - - - - - - -
28/04:30pm 14.3 SW 24 28 1016.7 - 0.0 - - - - - - -
28/04:00pm 14.9 SW 23 27 1016.5 - 0.0 - - - - - - -
28/03:30pm 15.0 SW 22 27 1016.2 - 0.0 - - - - - - -
28/03:00pm 14.4 SW 24 30 1016.0 - 0.0 - - - - - - -
28/02:30pm 14.7 SW 25 33 1015.7 - 0.0 - - - - - - -
28/02:00pm 14.6 SW 23 28 1015.6 - 0.0 - - - - - - -
28/01:30pm 14.8 SW 24 28 1015.6 - 0.0 - - - - - - -
28/01:00pm 14.3 SW 25 29 1015.7 - 0.0 - - - - - - -
28/12:38pm 13.8 SW 23 34 1015.7 - 0.0 - - - - - - -
28/12:36pm 14.3 SW 20 33 1015.8 - 0.0 - - - - - - -
28/12:30pm 14.1 SW 19 23 1016.0 - 0.0 - - - - - - -
28/12:16pm 13.3 SW 26 36 1016.2 - 0.0 - - - - - - -
28/12:00pm 13.9 SW 28 35 1016.0 - 0.0 - - - - - - -
28/11:30am 14.0 SW 26 34 1015.8 - 0.0 - - - - - - -
28/11:22am 13.6 WSW 22 34 1015.7 - 0.0 - - - - - - -
28/11:00am 13.8 SW 25 29 1015.8 - 0.0 - - - - - - -
28/10:38am 14.3 SW 26 37 1015.5 - 0.0 - - - - - - -
28/10:30am 14.3 SW 27 31 1015.5 - 0.0 - - - - - - -
28/10:00am 13.7 SW 24 29 1015.3 - 0.0 - - - - - - -
28/09:49am 12.8 SW 28 38 1015.2 - 0.0 - - - - - - -
28/09:30am 13.6 WSW 29 33 1014.7 - 7.4 - - - - - - -
28/09:00am 13.2 SW 30 35 1014.4 - 7.4 - - - - - - -
28/08:30am 12.7 WSW 32 44 1014.2 - 7.4 - - - - - - -
28/08:26am 13.8 WSW 30 44 1014.0 - 7.2 - - - - - - -
28/08:00am 13.4 WSW 32 39 1013.9 - 7.2 - - - - - - -
28/07:49am 13.6 WSW 30 42 1013.6 - 7.2 - - - - - - -
28/07:30am 13.1 WSW 25 29 1013.8 - 7.2 - - - - - - -
28/07:00am 13.0 WSW 28 37 1013.6 - 6.8 - - - - - - -
28/06:44am 13.5 WSW 31 43 1012.9 - 6.8 - - - - - - -
28/06:30am 14.0 SW 27 33 1013.3 - 6.8 - - - - - - -
28/06:00am 13.8 WSW 28 32 1013.2 - 6.8 - - - - - - -
28/05:36am 13.9 WSW 27 38 1012.9 - 6.8 - - - - - - -
28/05:30am 14.0 WSW 27 33 1013.1 - 6.8 - - - - - - -
28/05:00am 14.0 WSW 28 37 1013.2 - 6.8 - - - - - - -
28/04:30am 14.0 WSW 28 33 1012.9 - 6.8 - - - - - - -
28/04:00am 13.8 WSW 22 27 1013.1 - 6.8 - - - - - - -
28/03:30am 13.9 WSW 22 27 1013.2 - 6.8 - - - - - - -
28/03:00am 13.7 WSW 22 27 1013.3 - 6.8 - - - - - - -
28/02:30am 13.4 WSW 24 30 1013.3 - 6.8 - - - - - - -
28/02:00am 12.7 WSW 29 37 1013.2 - 6.6 - - - - - - -
28/01:47am 13.1 WSW 26 36 1013.4 - 6.6 - - - - - - -
28/01:30am 13.4 WSW 27 32 1013.3 - 6.6 - - - - - - -
28/01:00am 12.2 WSW 27 37 1013.5 - 6.4 - - - - - - -
28/12:56am 13.5 WSW 26 37 1013.6 - 6.0 - - - - - - -
28/12:30am 14.1 WSW 26 30 1013.5 - 5.8 - - - - - - -
28/12:00am 13.9 WSW 23 29 1013.5 - 5.8 - - - - - - -
 
Date/Time
EST
Temp
°C
Wind Pressure Rain since
9am
mm
Weather Cloud Vis
km
Sea
Height
m
Swell
Dir  Spd
kts
Gust
kts
hPa Trend Height
m
Period
s
Dir
27/11:30pm 13.5 WSW 29 39 1013.5 - 5.8 - - - - - - -
27/11:19pm 14.1 WSW 25 35 1013.4 - 5.8 - - - - - - -
27/11:00pm 14.1 WSW 24 31 1013.4 - 5.8 - - - - - - -
27/10:30pm 14.0 WSW 27 31 1013.3 - 5.8 - - - - - - -
27/10:00pm 13.8 WSW 27 33 1013.1 - 5.8 - - - - - - -
27/09:30pm 14.0 WSW 26 31 1013.1 - 5.8 - - - - - - -
27/09:00pm 13.8 WSW 29 34 1012.8 - 5.8 - - - - - - -
27/08:30pm 14.1 WSW 27 31 1012.4 - 5.8 - - - - - - -
27/08:00pm 14.0 WSW 28 34 1012.2 - 5.8 - - - - - - -
27/07:30pm 13.5 SW 29 38 1011.8 - 5.8 - - - - - - -
27/07:22pm 13.8 WSW 26 38 1011.8 - 5.8 - - - - - - -
27/07:00pm 13.7 WSW 28 33 1011.5 - 5.8 - - - - - - -
27/06:30pm 13.1 WSW 26 36 1011.2 - 5.8 Rain - - - - - -
27/06:26pm 13.5 WSW 26 36 1011.1 - 5.6 - - - - - - -
27/06:00pm 13.6 WSW 21 26 1010.7 - 5.6 - - - - - - -
27/05:30pm 12.8 WSW 25 31 1010.8 - 5.4 - - - - - - -
27/05:00pm 13.0 WSW 31 38 1010.5 - 5.2 - - - - - - -
27/04:31pm 13.8 WSW 28 38 1010.0 - 4.8 - - - - - - -
27/04:30pm 13.9 WSW 27 31 1010.1 - 4.8 - - - - - - -
27/04:12pm 14.2 SW 27 37 1009.7 - 4.4 - - - - - - -
27/04:00pm 14.5 WSW 29 35 1009.6 - 4.0 - - - - - - -
27/03:30pm 15.3 WSW 29 37 1009.2 - 4.0 - - - - - - -
27/03:26pm 16.1 W 26 36 1009.1 - 4.0 - - - - - - -
27/03:00pm 16.0 WSW 26 31 1009.2 - 4.0 - - - - - - -
27/02:30pm 15.6 W 23 29 1009.5 - 4.0 - - - - - - -
27/02:00pm 15.4 W 21 30 1009.8 - 3.8 - - - - - - -
27/01:54pm 15.1 WNW 17 30 1009.8 - 3.8 - - - - - - -
27/01:30pm 15.6 W 18 22 1010.2 - 3.8 - - - - - - -
27/01:00pm 15.9 W 19 22 1010.5 - 3.8 - - - - - - -
27/12:30pm 16.1 W 19 26 1010.7 - 3.8 - - - - - - -
27/12:00pm 16.1 WSW 22 26 1010.9 - 3.8 - - - - - - -
27/11:30am 15.9 WSW 23 27 1011.1 - 3.8 - - - - - - -
27/11:20am 15.1 W 23 37 1011.1 - 3.8 - - - - - - -
27/11:17am 15.3 W 21 37 1010.9 - 3.6 - - - - - - -
27/11:15am 16.5 W 17 29 1011.0 - 2.4 - - - - - - -
27/11:00am 15.4 WNW 17 28 1011.5 - 2.4 - - - - - - -
27/10:56am 16.3 WNW 17 28 1011.4 - 1.6 - - - - - - -
27/10:54am 17.4 WNW 15 25 1011.3 - 0.2 - - - - - - -
27/10:30am 16.3 WNW 17 21 1011.4 - 0.2 - - - - - - -
27/10:00am 15.4 WNW 23 30 1011.2 - 0.2 - - - - - - -
27/09:55am 15.7 NW 21 30 1011.1 - 0.0 - - - - - - -
27/09:30am 17.2 NW 19 22 1011.1 - 0.0 - - - - - - -
27/09:00am 16.8 NW 19 22 1011.3 - 0.0 - - - - - - -
27/08:30am 16.9 NW 20 23 1011.3 - 0.0 - - - - - - -
27/08:00am 16.4 NW 19 23 1011.2 - 0.0 - - - - - - -
27/07:30am 16.4 NW 19 22 1011.1 - 0.0 - - - - - - -
27/07:00am 16.4 NW 19 22 1011.0 - 0.0 - - - - - - -
27/06:30am 16.0 NW 19 23 1010.9 - 0.0 - - - - - - -
27/06:00am 16.1 NNW 16 18 1010.9 - 0.0 - - - - - - -
27/05:30am 16.2 NNW 14 17 1011.0 - 0.0 - - - - - - -
27/05:00am 16.1 N 12 15 1011.1 - 0.0 - - - - - - -
27/04:30am 16.5 N 13 15 1011.3 - 0.0 - - - - - - -
27/04:00am 16.8 NNW 13 16 1011.8 - 0.0 - - - - - - -
27/03:30am 16.9 N 11 13 1012.2 - 0.0 - - - - - - -
27/03:00am 16.8 NNW 11 13 1012.4 - 0.0 - - - - - - -
27/02:30am 16.8 NNW 10 11 1012.6 - 0.0 - - - - - - -
27/02:00am 16.8 NNW 11 13 1013.0 - 0.0 - - - - - - -
27/01:30am 16.8 NNW 11 13 1013.3 - 0.0 - - - - - - -
27/01:00am 16.7 N 11 13 1013.5 - 0.0 - - - - - - -
27/12:30am 16.6 N 13 15 1013.7 - 0.0 - - - - - - -
27/12:00am 16.6 N 14 16 1013.9 - 0.0 - - - - - - -
 
Date/Time
EST
Temp
°C
Wind Pressure Rain since
9am
mm
Weather Cloud Vis
km
Sea
Height
m
Swell
Dir  Spd
kts
Gust
kts
hPa Trend Height
m
Period
s
Dir
26/11:30pm 16.4 N 13 16 1014.2 - 0.0 - - - - - - -
26/11:00pm 16.5 N 12 14 1014.4 - 0.0 - - - - - - -
26/10:30pm 16.3 N 11 12 1014.5 - 0.0 - - - - - - -
26/10:00pm 16.0 N 10 11 1014.7 - 0.0 - - - - - - -
26/09:30pm 16.1 NNW 9 11 1014.9 - 0.0 - - - - - - -
26/09:00pm 16.1 NNW 8 9 1015.2 - 0.0 - - - - - - -
26/08:30pm 16.3 N 9 10 1015.3 - 0.0 - - - - - - -

Other Formats:

Comma delimited format used in spreadsheet applications
http://www.bom.gov.au/fwo/IDT60701/IDT60701.94804.axf

JavaScript Object Notation format (JSON) in row-major order
http://www.bom.gov.au/fwo/IDT60701/IDT60701.94804.json